Time;durP1;ratioP1;P1;durP2;ratioP2;P2;SDS_P1;SDS_P2;PMS_P1;PMS_P2;Temp;Humidity;BMP_temperature;BMP_pressure;BME280_temperature;BME280_humidity;BME280_pressure;Samples;Min_cycle;Max_cycle;Signal;HPM_P1;HPM_P2
2023/10/03 00:01:05;;;;;;;35.97;23.00;;;17.20;99.90;;;;;;5072968;28;20480;-86
2023/10/03 00:03:32;;;;;;;36.20;22.33;;;17.20;99.90;;;;;;5077204;28;20039;-86
2023/10/03 00:05:58;;;;;;;38.05;21.95;;;17.10;99.90;;;;;;5070094;28;20048;-86
2023/10/03 00:08:26;;;;;;;36.42;22.42;;;17.10;99.90;;;;;;5075841;28;20036;-86
2023/10/03 00:10:52;;;;;;;41.58;23.52;;;17.20;99.90;;;;;;5085627;28;20125;-86
2023/10/03 00:13:19;;;;;;;38.80;23.00;;;17.10;99.90;;;;;;5086351;28;20076;-86
2023/10/03 00:15:45;;;;;;;38.53;22.50;;;17.10;99.90;;;;;;5069782;28;20470;-87
2023/10/03 00:18:14;;;;;;;40.15;22.63;;;17.10;99.90;;;;;;5070176;28;20051;-85
2023/10/03 00:20:41;;;;;;;35.33;23.33;;;17.10;99.90;;;;;;5086635;28;20499;-86
2023/10/03 00:23:07;;;;;;;38.00;22.88;;;17.00;99.90;;;;;;5070104;28;20040;-86
2023/10/03 00:25:34;;;;;;;41.03;23.13;;;17.00;99.90;;;;;;5085109;28;20055;-86
2023/10/03 00:28:00;;;;;;;40.00;22.77;;;17.20;99.90;;;;;;5070925;28;20052;-86
2023/10/03 00:30:29;;;;;;;39.97;22.75;;;17.30;99.90;;;;;;5088688;28;20501;-86
2023/10/03 00:32:57;;;;;;;34.72;21.05;;;17.00;99.90;;;;;;5097136;28;20036;-86
2023/10/03 00:35:29;;;;;;;37.50;21.55;;;17.40;99.90;;;;;;5087781;28;20046;-85
2023/10/03 00:37:54;;;;;;;35.95;22.52;;;17.00;99.90;;;;;;5070339;28;20059;-86
2023/10/03 00:42:57;;;;;;;35.10;21.65;;;16.90;99.90;;;;;;5090976;28;20083;-86
2023/10/03 00:45:26;;;;;;;37.03;21.65;;;16.90;99.90;;;;;;5090115;28;20137;-86
2023/10/03 00:47:54;;;;;;;34.42;21.67;;;16.90;99.90;;;;;;5091637;28;20035;-86
2023/10/03 00:50:23;;;;;;;36.13;20.55;;;17.10;99.90;;;;;;5072645;28;20120;-86
2023/10/03 00:52:56;;;;;;;35.13;20.63;;;16.90;99.90;;;;;;5073812;28;20621;-86
2023/10/03 00:55:26;;;;;;;37.47;21.48;;;16.90;99.90;;;;;;5090211;28;20052;-85
2023/10/03 00:58:07;;;;;;;34.90;20.55;;;17.20;99.90;;;;;;5090370;28;20491;-86
2023/10/03 01:00:41;;;;;;;33.17;20.52;;;16.90;99.90;;;;;;5088620;28;20036;-86
2023/10/03 01:03:37;;;;;;;33.40;19.52;;;17.20;99.90;;;;;;5090498;28;20415;-86
2023/10/03 01:06:09;;;;;;;32.83;19.63;;;16.90;99.90;;;;;;5073300;28;20131;-87
2023/10/03 01:08:43;;;;;;;34.28;20.13;;;16.80;99.90;;;;;;5092832;28;20036;-86
2023/10/03 01:11:15;;;;;;;33.10;19.25;;;17.10;99.90;;;;;;5089424;28;20044;-86
2023/10/03 01:13:54;;;;;;;32.63;17.83;;;16.90;99.90;;;;;;5088797;28;20159;-86
2023/10/03 01:16:32;;;;;;;33.08;19.45;;;16.80;99.90;;;;;;5073925;28;20508;-86
2023/10/03 01:19:12;;;;;;;32.33;18.52;;;16.80;99.90;;;;;;5084895;28;20048;-87
2023/10/03 01:21:40;;;;;;;32.60;18.00;;;17.50;99.90;;;;;;5089896;28;20036;-86
2023/10/03 01:24:09;;;;;;;34.80;17.55;;;16.90;99.90;;;;;;5092469;28;20051;-86
2023/10/03 01:26:35;;;;;;;28.52;17.13;;;17.60;99.90;;;;;;5090695;28;20062;-86
2023/10/03 01:29:00;;;;;;;26.73;16.45;;;16.80;99.90;;;;;;5092165;28;20626;-86
2023/10/03 01:31:27;;;;;;;27.75;16.13;;;16.80;99.90;;;;;;5080715;28;20058;-85
2023/10/03 01:33:53;;;;;;;27.33;16.38;;;17.10;99.90;;;;;;5089369;28;20123;-87
2023/10/03 01:36:19;;;;;;;28.02;15.60;;;16.80;99.90;;;;;;5109757;28;20040;-86
2023/10/03 01:38:45;;;;;;;28.48;15.98;;;17.00;99.90;;;;;;5089963;28;20090;-86
2023/10/03 01:41:12;;;;;;;30.88;16.90;;;16.80;99.90;;;;;;5086215;28;20054;-85
2023/10/03 01:43:43;;;;;;;26.90;15.82;;;17.40;99.90;;;;;;5083490;28;20051;-86
2023/10/03 01:46:09;;;;;;;27.83;16.73;;;16.80;99.90;;;;;;5090376;28;20047;-87
2023/10/03 01:48:36;;;;;;;28.58;16.70;;;17.50;99.90;;;;;;5090080;28;20040;-87
2023/10/03 01:51:02;;;;;;;31.50;16.70;;;16.80;99.90;;;;;;5075715;28;20068;-86
2023/10/03 01:53:30;;;;;;;31.10;15.90;;;16.80;99.90;;;;;;5108333;28;20039;-87
2023/10/03 01:55:56;;;;;;;26.77;15.70;;;16.80;99.90;;;;;;5102261;28;20132;-86
2023/10/03 01:58:25;;;;;;;33.83;16.15;;;17.10;99.90;;;;;;5089856;28;20033;-87
2023/10/03 02:00:51;;;;;;;28.08;15.95;;;16.80;99.90;;;;;;5076854;28;20115;-87
2023/10/03 02:03:18;;;;;;;30.30;16.40;;;16.90;99.90;;;;;;5073055;28;20036;-86
2023/10/03 02:05:45;;;;;;;28.30;17.98;;;16.90;99.90;;;;;;5075346;28;20081;-87
2023/10/03 02:08:19;;;;;;;32.28;16.75;;;16.90;99.90;;;;;;5076934;28;20050;-88
2023/10/03 02:10:46;;;;;;;30.85;16.23;;;16.90;99.90;;;;;;5081748;28;20048;-86
2023/10/03 02:13:21;;;;;;;33.03;16.98;;;17.00;99.90;;;;;;5089171;28;20124;-88
2023/10/03 02:15:49;;;;;;;32.25;16.58;;;17.70;99.90;;;;;;5074504;28;20056;-87
2023/10/03 02:18:18;;;;;;;33.65;17.73;;;16.90;99.90;;;;;;5089007;28;20043;-86
2023/10/03 02:20:51;;;;;;;46.53;17.88;;;17.00;99.90;;;;;;5089876;28;20054;-87
2023/10/03 02:23:23;;;;;;;31.13;17.08;;;16.90;99.90;;;;;;5072434;28;20052;-86
2023/10/03 02:25:56;;;;;;;29.88;17.40;;;17.00;99.90;;;;;;5072973;28;20055;-87
2023/10/03 02:28:22;;;;;;;29.83;16.60;;;17.00;99.90;;;;;;5089437;28;20528;-87
2023/10/03 02:30:54;;;;;;;36.33;17.73;;;17.00;99.90;;;;;;5094810;28;20130;-87
2023/10/03 02:33:22;;;;;;;33.50;18.30;;;17.00;99.90;;;;;;5088633;28;20066;-86
2023/10/03 02:35:48;;;;;;;31.05;17.05;;;17.00;99.90;;;;;;5072586;28;20042;-87
2023/10/03 02:38:24;;;;;;;29.38;16.63;;;17.40;99.90;;;;;;5104754;27;20044;-86
2023/10/03 02:40:59;;;;;;;30.52;16.60;;;17.00;99.90;;;;;;5092058;28;20047;-87
2023/10/03 02:43:34;;;;;;;34.33;17.48;;;17.30;99.90;;;;;;5092515;28;20052;-86
2023/10/03 02:46:00;;;;;;;32.47;16.52;;;17.00;99.90;;;;;;5103672;27;20054;-87
2023/10/03 02:48:26;;;;;;;33.03;16.98;;;17.30;99.90;;;;;;5092175;28;20046;-87
2023/10/03 02:50:52;;;;;;;29.88;17.25;;;17.10;99.90;;;;;;5086204;27;20031;-87
2023/10/03 02:53:21;;;;;;;33.20;16.70;;;17.10;99.90;;;;;;5110650;27;20851;-86
2023/10/03 02:55:48;;;;;;;29.02;16.73;;;17.10;99.90;;;;;;5094177;28;20066;-87
2023/10/03 02:58:14;;;;;;;32.45;16.95;;;17.40;99.90;;;;;;5075489;28;20684;-85
2023/10/03 03:00:41;;;;;;;30.60;16.45;;;17.30;99.90;;;;;;5091437;28;20047;-87
2023/10/03 03:03:09;;;;;;;28.50;16.38;;;17.80;99.90;;;;;;5109461;27;20162;-87
2023/10/03 03:05:38;;;;;;;31.30;16.02;;;17.20;99.90;;;;;;5082318;27;20047;-89
2023/10/03 03:10:43;;;;;;;32.33;16.75;;;17.20;99.90;;;;;;5091555;28;20047;-86
2023/10/03 03:13:13;;;;;;;31.25;16.85;;;17.30;99.90;;;;;;5099784;28;20051;-87
2023/10/03 03:15:40;;;;;;;29.08;16.50;;;17.20;99.90;;;;;;5074478;28;20044;-87
2023/10/03 03:18:05;;;;;;;36.03;17.50;;;17.20;99.90;;;;;;5091690;28;20050;-87
2023/10/03 03:20:38;;;;;;;28.73;16.08;;;17.20;99.90;;;;;;5091758;27;20039;-86
2023/10/03 03:23:06;;;;;;;33.75;17.40;;;17.20;99.90;;;;;;5093877;27;20119;-87
2023/10/03 03:25:36;;;;;;;30.58;16.95;;;17.80;99.90;;;;;;5107159;27;20047;-86
2023/10/03 03:28:13;;;;;;;30.70;16.98;;;17.20;99.90;;;;;;5091545;28;20087;-86
2023/10/03 03:30:47;;;;;;;29.90;16.30;;;17.20;99.90;;;;;;5102000;27;20114;-86
2023/10/03 03:33:19;;;;;;;27.85;16.05;;;17.20;99.90;;;;;;5092345;28;20948;-86
2023/10/03 03:35:47;;;;;;;28.35;15.75;;;17.60;99.90;;;;;;5091552;27;20112;-86
2023/10/03 03:38:20;;;;;;;32.75;15.95;;;17.20;99.90;;;;;;5078638;28;20043;-88
2023/10/03 03:40:53;;;;;;;30.27;16.13;;;17.20;99.90;;;;;;5073971;27;20043;-87
2023/10/03 03:43:19;;;;;;;28.25;15.75;;;17.70;99.90;;;;;;5099906;27;20047;-86
2023/10/03 03:45:44;;;;;;;30.33;15.85;;;17.20;99.90;;;;;;5089521;27;20082;-87
2023/10/03 03:48:11;;;;;;;30.60;15.60;;;17.30;99.90;;;;;;5093567;28;20078;-87
2023/10/03 03:50:38;;;;;;;31.35;15.35;;;17.20;99.90;;;;;;5094764;27;20065;-88
2023/10/03 03:53:04;;;;;;;32.03;16.38;;;17.30;99.90;;;;;;5091871;28;20043;-86
2023/10/03 03:55:30;;;;;;;29.58;15.63;;;17.30;99.90;;;;;;5090145;27;20053;-86
2023/10/03 03:57:59;;;;;;;27.95;15.27;;;18.00;99.90;;;;;;5099943;27;20563;-88
2023/10/03 04:00:28;;;;;;;27.83;15.52;;;17.40;99.90;;;;;;5107010;28;20047;-89
2023/10/03 04:02:57;;;;;;;26.83;14.82;;;17.40;99.90;;;;;;5085898;28;20036;-88
2023/10/03 04:05:25;;;;;;;30.90;15.50;;;17.40;99.90;;;;;;5081332;28;20046;-89
2023/10/03 04:07:51;;;;;;;29.73;15.00;;;17.40;99.90;;;;;;5102281;27;20047;-90
2023/10/03 04:10:17;;;;;;;28.50;14.82;;;17.50;99.90;;;;;;5092268;27;20482;-89
2023/10/03 04:12:43;;;;;;;27.83;15.15;;;17.50;99.90;;;;;;5092740;28;20039;-91
2023/10/03 04:15:12;;;;;;;27.45;14.95;;;17.50;99.90;;;;;;5092221;28;20039;-89
2023/10/03 04:17:41;;;;;;;32.42;14.65;;;17.60;99.90;;;;;;5090651;28;20600;-92
2023/10/03 04:20:30;;;;;;;27.98;14.63;;;17.60;99.90;;;;;;5092630;28;20498;-90
2023/10/03 04:22:58;;;;;;;27.13;14.57;;;17.60;99.90;;;;;;5091219;28;20517;-88
2023/10/03 04:25:24;;;;;;;27.27;14.10;;;17.60;99.90;;;;;;5091487;28;20465;-90
2023/10/03 04:27:52;;;;;;;26.73;14.07;;;17.50;99.90;;;;;;5087633;28;20042;-88
2023/10/03 04:30:25;;;;;;;27.92;14.52;;;17.60;99.90;;;;;;5092971;28;20071;-88
2023/10/03 04:32:51;;;;;;;27.42;14.60;;;17.60;99.90;;;;;;5086582;28;20127;-90
2023/10/03 04:35:20;;;;;;;26.15;14.73;;;17.60;99.90;;;;;;5092245;28;20108;-89
2023/10/03 04:37:54;;;;;;;26.50;14.07;;;17.70;99.90;;;;;;5074970;28;20708;-88
2023/10/03 04:40:22;;;;;;;28.10;14.57;;;17.90;99.90;;;;;;5097895;28;20058;-87
2023/10/03 04:42:52;;;;;;;26.92;14.98;;;17.60;99.90;;;;;;5075031;28;20410;-89
2023/10/03 04:45:20;;;;;;;27.13;13.75;;;17.60;99.90;;;;;;5098422;28;20111;-88
2023/10/03 04:47:47;;;;;;;27.27;14.38;;;17.60;99.90;;;;;;5080721;28;20043;-87
2023/10/03 04:50:17;;;;;;;26.55;13.57;;;17.60;99.90;;;;;;5081329;28;20044;-89
2023/10/03 04:52:48;;;;;;;27.30;14.15;;;17.60;99.90;;;;;;5095907;28;20039;-88
2023/10/03 04:55:19;;;;;;;26.92;13.95;;;17.60;99.90;;;;;;5091810;28;20039;-90
2023/10/03 04:57:46;;;;;;;25.02;13.32;;;17.70;99.90;;;;;;5091651;28;20040;-89
2023/10/03 05:00:16;;;;;;;24.42;12.65;;;17.80;99.90;;;;;;5076612;28;20043;-88
2023/10/03 05:02:46;;;;;;;24.80;13.25;;;18.20;99.90;;;;;;5077735;28;20044;-87
2023/10/03 05:05:21;;;;;;;26.20;13.45;;;18.10;99.90;;;;;;5091804;28;20536;-88
2023/10/03 05:07:49;;;;;;;25.15;13.05;;;18.00;99.90;;;;;;5081027;28;20054;-89
2023/10/03 05:10:17;;;;;;;22.75;12.40;;;18.10;99.90;;;;;;5083501;28;20043;-87
2023/10/03 05:12:46;;;;;;;25.55;13.27;;;18.20;99.90;;;;;;5102918;28;20513;-90
2023/10/03 05:15:14;;;;;;;21.90;12.25;;;18.50;99.90;;;;;;5097941;28;20074;-86
2023/10/03 05:17:43;;;;;;;23.17;12.38;;;18.60;99.90;;;;;;5108867;28;20040;-90
2023/10/03 05:20:15;;;;;;;24.52;12.13;;;18.30;99.90;;;;;;5081120;28;20047;-89
2023/10/03 05:22:41;;;;;;;22.83;11.57;;;18.40;99.90;;;;;;5103489;28;20035;-86
2023/10/03 05:25:12;;;;;;;24.95;11.77;;;18.90;99.90;;;;;;5088550;27;20818;-87
2023/10/03 05:27:42;;;;;;;22.65;11.07;;;18.70;99.90;;;;;;5111351;27;20039;-88
2023/10/03 05:30:09;;;;;;;20.45;10.65;;;18.50;99.90;;;;;;5107689;28;20149;-87
2023/10/03 05:32:39;;;;;;;18.17;11.02;;;18.60;99.90;;;;;;5093339;27;20067;-89
2023/10/03 05:35:06;;;;;;;22.60;11.68;;;18.60;99.90;;;;;;5101986;28;20043;-88
2023/10/03 05:37:35;;;;;;;22.45;10.48;;;18.60;99.90;;;;;;5110785;27;20055;-88
2023/10/03 05:40:11;;;;;;;20.90;10.85;;;18.60;99.90;;;;;;5084611;28;20087;-87
2023/10/03 05:42:41;;;;;;;21.67;10.95;;;18.70;99.90;;;;;;5094160;28;20113;-86
2023/10/03 05:45:12;;;;;;;22.67;10.80;;;18.70;99.90;;;;;;5094691;28;20388;-88
2023/10/03 05:47:48;;;;;;;18.27;10.00;;;18.70;99.90;;;;;;5100754;28;20069;-88
2023/10/03 05:50:23;;;;;;;22.58;10.90;;;18.70;99.90;;;;;;5094607;28;20044;-87
2023/10/03 05:52:49;;;;;;;19.27;10.77;;;18.70;99.90;;;;;;5093255;28;20109;-87
2023/10/03 05:55:15;;;;;;;23.02;10.85;;;18.80;99.90;;;;;;5109380;27;20463;-85
2023/10/03 05:57:45;;;;;;;22.52;11.23;;;18.80;99.90;;;;;;5115289;27;20347;-88
2023/10/03 06:00:19;;;;;;;19.75;9.70;;;19.00;99.90;;;;;;5097034;27;20486;-89
2023/10/03 06:02:47;;;;;;;19.70;9.75;;;18.80;99.90;;;;;;5097880;27;20043;-87
2023/10/03 06:05:16;;;;;;;18.90;9.00;;;18.80;99.90;;;;;;5112978;27;20047;-86
2023/10/03 06:07:44;;;;;;;21.98;9.25;;;19.40;99.90;;;;;;5114965;27;20055;-87
2023/10/03 06:10:15;;;;;;;16.48;8.77;;;18.80;99.90;;;;;;5088961;27;20064;-88
2023/10/03 06:12:41;;;;;;;17.75;8.18;;;19.90;99.90;;;;;;5077262;28;20044;-86
2023/10/03 06:15:07;;;;;;;19.63;8.32;;;18.80;99.90;;;;;;5093433;28;20320;-86
2023/10/03 06:17:34;;;;;;;15.25;7.78;;;18.80;99.90;;;;;;5093686;28;20380;-88
2023/10/03 06:19:59;;;;;;;13.10;7.25;;;18.80;99.90;;;;;;5093407;28;20035;-86
2023/10/03 06:22:26;;;;;;;13.48;6.82;;;18.80;99.90;;;;;;5095099;28;20100;-86
2023/10/03 06:24:57;;;;;;;14.80;6.82;;;19.20;99.90;;;;;;5095875;28;20410;-87
2023/10/03 06:27:23;;;;;;;16.48;7.22;;;18.80;99.90;;;;;;5111695;27;20043;-87
2023/10/03 06:29:49;;;;;;;13.75;7.22;;;18.80;99.90;;;;;;5082207;27;20122;-86
2023/10/03 06:32:14;;;;;;;13.32;5.97;;;18.80;99.90;;;;;;5104685;27;20067;-87
2023/10/03 06:34:42;;;;;;;12.93;5.88;;;18.70;99.90;;;;;;5097026;28;20055;-86
2023/10/03 06:37:08;;;;;;;10.00;5.32;;;18.70;99.90;;;;;;5087354;27;20139;-86
2023/10/03 06:39:34;;;;;;;12.20;5.22;;;18.70;99.90;;;;;;5108142;28;20748;-85
2023/10/03 06:42:00;;;;;;;8.18;4.25;;;18.80;99.90;;;;;;5087278;27;20062;-86
2023/10/03 06:44:25;;;;;;;9.93;4.25;;;19.00;99.90;;;;;;5110903;28;20169;-87
2023/10/03 06:46:52;;;;;;;8.82;3.97;;;18.80;99.90;;;;;;5094262;28;20467;-86
2023/10/03 06:49:19;;;;;;;9.02;3.97;;;18.80;99.90;;;;;;5078801;28;20043;-87
2023/10/03 06:51:45;;;;;;;13.88;4.50;;;18.80;99.90;;;;;;5093634;28;20055;-86
2023/10/03 06:54:11;;;;;;;9.18;4.35;;;18.70;99.90;;;;;;5101124;27;20043;-87
2023/10/03 06:56:37;;;;;;;9.07;4.00;;;18.70;99.90;;;;;;5098241;28;20039;-86
2023/10/03 06:59:08;;;;;;;8.05;3.85;;;18.70;99.90;;;;;;5076747;28;20043;-87
2023/10/03 07:01:35;;;;;;;9.13;4.10;;;18.60;99.90;;;;;;5094521;28;20090;-88
2023/10/03 07:04:01;;;;;;;11.93;4.30;;;19.10;99.90;;;;;;5079459;28;20055;-87
2023/10/03 07:06:28;;;;;;;9.15;3.65;;;18.60;99.90;;;;;;5096362;28;20078;-88
2023/10/03 07:08:53;;;;;;;8.63;3.78;;;18.60;99.90;;;;;;5077191;28;20054;-86
2023/10/03 07:11:20;;;;;;;11.43;4.07;;;18.60;99.90;;;;;;5086679;27;20031;-89
2023/10/03 07:13:46;;;;;;;10.25;3.85;;;19.00;99.90;;;;;;5120598;27;20055;-87
2023/10/03 07:16:11;;;;;;;12.77;4.00;;;18.70;99.90;;;;;;5094121;28;20410;-86
2023/10/03 07:18:38;;;;;;;16.27;3.72;;;19.00;99.90;;;;;;5097504;27;20043;-88
2023/10/03 07:21:03;;;;;;;9.13;3.78;;;19.00;99.90;;;;;;5101827;28;20080;-84
2023/10/03 07:23:30;;;;;;;10.48;4.18;;;19.20;99.90;;;;;;5099196;28;20043;-86
2023/10/03 07:25:55;;;;;;;8.50;3.45;;;18.90;99.90;;;;;;5083679;27;20051;-88
2023/10/03 07:28:21;;;;;;;9.77;4.00;;;19.50;99.90;;;;;;5078742;27;20088;-86
2023/10/03 07:30:47;;;;;;;8.15;3.60;;;18.90;99.90;;;;;;5097674;28;20123;-87
2023/10/03 07:33:12;;;;;;;10.02;4.22;;;19.20;99.90;;;;;;5095013;28;20047;-86
2023/10/03 07:35:41;;;;;;;8.50;3.90;;;18.70;99.90;;;;;;5099471;27;20051;-89
2023/10/03 07:38:11;;;;;;;9.88;3.78;;;18.70;99.90;;;;;;5098488;27;20039;-88
2023/10/03 07:40:38;;;;;;;8.48;4.28;;;18.50;99.90;;;;;;5114230;27;20047;-88
2023/10/03 07:43:12;;;;;;;8.77;4.07;;;18.00;99.90;;;;;;5116719;27;20135;-87
2023/10/03 07:45:38;;;;;;;7.93;3.90;;;18.30;99.90;;;;;;5115520;27;20054;-89
2023/10/03 07:48:06;;;;;;;6.65;4.00;;;18.30;99.90;;;;;;5099398;27;20057;-88
2023/10/03 07:50:35;;;;;;;7.13;3.63;;;18.20;99.90;;;;;;5110594;28;20096;-85
2023/10/03 07:53:03;;;;;;;10.68;4.65;;;18.40;99.90;;;;;;5096428;28;20047;-88
2023/10/03 07:55:35;;;;;;;7.32;3.97;;;18.20;99.90;;;;;;5092251;28;20075;-86
2023/10/03 07:58:01;;;;;;;9.73;4.53;;;18.10;99.90;;;;;;5102880;27;20541;-88
2023/10/03 08:00:26;;;;;;;9.45;4.53;;;18.10;99.90;;;;;;5094776;27;20138;-86
2023/10/03 08:02:55;;;;;;;8.88;4.40;;;18.10;99.90;;;;;;5092659;28;20130;-90
2023/10/03 08:05:27;;;;;;;10.40;5.00;;;17.90;99.90;;;;;;5109369;27;20111;-88
2023/10/03 08:08:02;;;;;;;8.70;4.72;;;18.00;99.90;;;;;;5077993;27;20075;-88
2023/10/03 08:10:30;;;;;;;11.52;5.00;;;18.80;99.90;;;;;;5104227;27;20112;-85
2023/10/03 08:12:57;;;;;;;9.05;4.65;;;18.30;99.90;;;;;;5094670;27;20055;-87
2023/10/03 08:15:31;;;;;;;8.75;4.45;;;18.00;99.90;;;;;;5111346;28;20053;-89
2023/10/03 08:17:57;;;;;;;10.43;4.53;;;17.60;99.90;;;;;;5111484;27;20049;-87
2023/10/03 08:20:24;;;;;;;9.90;4.53;;;17.60;99.90;;;;;;5110955;27;20047;-88
2023/10/03 08:22:52;;;;;;;8.27;4.25;;;17.60;99.90;;;;;;5074818;28;20059;-87
2023/10/03 08:25:19;;;;;;;10.60;4.70;;;17.50;99.90;;;;;;5091423;28;20142;-87
2023/10/03 08:27:46;;;;;;;10.10;4.15;;;18.00;99.90;;;;;;5091326;28;20039;-87
2023/10/03 08:30:27;;;;;;;10.23;4.13;;;17.50;99.90;;;;;;5091508;28;20050;-86
2023/10/03 08:32:57;;;;;;;7.90;3.50;;;17.50;99.90;;;;;;5074461;28;20117;-87
2023/10/03 08:35:37;;;;;;;7.35;3.38;;;17.50;99.90;;;;;;5074550;28;20040;-85
2023/10/03 08:38:08;;;;;;;7.00;3.45;;;17.50;99.90;;;;;;5091442;28;20051;-86
2023/10/03 08:40:38;;;;;;;10.27;2.97;;;17.60;99.90;;;;;;5081973;28;20067;-86
2023/10/03 08:43:09;;;;;;;9.48;2.75;;;17.60;99.90;;;;;;5074619;28;20039;-86
2023/10/03 08:45:40;;;;;;;8.05;2.90;;;17.60;99.90;;;;;;5090929;28;20035;-86
2023/10/03 08:48:06;;;;;;;5.07;2.50;;;17.60;99.90;;;;;;5090941;28;20130;-85
2023/10/03 08:50:53;;;;;;;6.30;2.67;;;17.60;99.90;;;;;;5111531;28;20138;-86
2023/10/03 08:53:26;;;;;;;6.60;2.17;;;17.40;99.90;;;;;;5092798;28;20047;-88
2023/10/03 08:56:03;;;;;;;4.03;2.08;;;17.60;99.90;;;;;;5093567;28;20406;-86
2023/10/03 08:58:32;;;;;;;4.40;1.90;;;18.30;99.90;;;;;;5095685;28;20051;-86
2023/10/03 09:01:02;;;;;;;5.43;1.80;;;17.30;99.90;;;;;;5088711;28;20065;-85
2023/10/03 09:03:47;;;;;;;6.57;1.77;;;17.20;99.90;;;;;;5110277;27;20051;-85
2023/10/03 09:06:19;;;;;;;4.55;1.63;;;17.20;99.90;;;;;;5085437;27;20414;-85
2023/10/03 09:09:09;;;;;;;5.03;1.50;;;17.20;99.90;;;;;;5089745;27;21106;-87
2023/10/03 09:11:38;;;;;;;3.95;1.20;;;17.20;99.90;;;;;;5082838;28;20035;-88
2023/10/03 09:14:05;;;;;;;7.00;1.60;;;17.20;99.90;;;;;;5098569;28;20040;-86
2023/10/03 09:16:39;;;;;;;3.95;1.48;;;17.20;99.90;;;;;;5099377;28;20498;-87
2023/10/03 09:19:05;;;;;;;4.07;1.25;;;17.20;99.90;;;;;;5097175;28;20044;-87
2023/10/03 09:21:33;;;;;;;5.45;1.20;;;17.60;99.90;;;;;;5096465;28;20051;-86
2023/10/03 09:24:09;;;;;;;2.92;1.05;;;17.30;99.90;;;;;;5095943;28;20048;-86
2023/10/03 09:26:51;;;;;;;4.28;1.02;;;17.40;99.90;;;;;;5099887;27;20046;-91
2023/10/03 09:29:32;;;;;;;3.17;0.90;;;17.40;99.90;;;;;;5102927;27;20049;-91
2023/10/03 09:32:16;;;;;;;2.17;0.75;;;17.30;99.90;;;;;;5095596;28;20178;-89
2023/10/03 09:34:46;;;;;;;3.20;0.82;;;16.60;99.90;;;;;;5095188;28;20079;-87
2023/10/03 09:37:12;;;;;;;3.20;0.60;;;16.30;99.90;;;;;;5087388;27;20053;-88
2023/10/03 09:39:48;;;;;;;3.90;0.75;;;16.10;99.90;;;;;;5081045;27;20494;-87
2023/10/03 09:42:18;;;;;;;3.72;0.82;;;16.00;99.90;;;;;;5119554;27;20044;-89
2023/10/03 09:44:46;;;;;;;4.03;0.70;;;16.60;99.90;;;;;;5116208;27;20058;-86
2023/10/03 09:47:13;;;;;;;4.13;0.80;;;16.00;99.90;;;;;;5100761;27;20066;-89
2023/10/03 09:49:39;;;;;;;2.97;0.70;;;15.90;99.90;;;;;;5100551;27;20119;-88
2023/10/03 09:52:25;;;;;;;4.38;2.13;;;15.90;99.90;;;;;;5122216;27;20049;-88
2023/10/03 09:54:54;;;;;;;4.32;0.52;;;16.30;99.90;;;;;;5114435;27;20130;-89
2023/10/03 09:57:21;;;;;;;3.75;0.73;;;15.80;99.90;;;;;;5099877;27;20092;-89
2023/10/03 09:59:48;;;;;;;3.75;0.70;;;15.80;99.90;;;;;;5099892;27;20051;-86
2023/10/03 10:02:30;;;;;;;3.00;0.43;;;16.20;99.90;;;;;;5119154;27;20050;-89
2023/10/03 10:05:00;;;;;;;3.47;0.65;;;16.80;99.90;;;;;;5099951;27;20079;-90
2023/10/03 10:07:58;;;;;;;1.80;0.50;;;15.90;99.90;;;;;;5100686;27;20390;-89
2023/10/03 10:10:25;;;;;;;2.42;0.70;;;15.90;99.90;;;;;;5096646;27;20036;-88
2023/10/03 10:13:20;;;;;;;2.55;0.60;;;15.90;99.90;;;;;;5088897;27;20062;-86
2023/10/03 10:16:07;;;;;;;2.28;0.60;;;16.00;99.90;;;;;;5079097;28;20046;-87
2023/10/03 10:18:45;;;;;;;3.55;0.50;;;16.60;99.90;;;;;;5095521;27;20099;-86
2023/10/03 10:21:37;;;;;;;3.15;0.60;;;16.00;99.90;;;;;;5079078;28;20044;-87
2023/10/03 10:24:20;;;;;;;2.93;0.57;;;16.00;99.90;;;;;;5077151;28;20047;-87
2023/10/03 10:26:48;;;;;;;2.20;0.80;;;16.10;99.90;;;;;;5099445;27;20035;-87
2023/10/03 10:29:19;;;;;;;2.40;0.50;;;16.10;99.90;;;;;;5103687;28;20043;-87
2023/10/03 10:31:57;;;;;;;4.20;0.60;;;16.10;99.90;;;;;;5101209;27;20046;-88
2023/10/03 10:34:40;;;;;;;2.65;0.60;;;16.10;99.90;;;;;;5103836;28;20043;-87
2023/10/03 10:37:09;;;;;;;1.80;0.75;;;16.10;99.90;;;;;;5104333;27;20062;-87
2023/10/03 10:40:29;;;;;;;3.45;0.60;;;16.30;99.90;;;;;;5099022;27;20440;-88
2023/10/03 10:43:01;;;;;;;2.60;0.60;;;16.30;99.90;;;;;;5111565;27;20058;-90
2023/10/03 10:45:27;;;;;;;1.25;0.50;;;16.40;99.90;;;;;;5112406;27;20043;-85
2023/10/03 10:47:55;;;;;;;6.88;0.60;;;17.20;99.90;;;;;;5079862;28;20031;-87
2023/10/03 10:50:25;;;;;;;1.83;0.90;;;17.20;99.90;;;;;;5092706;27;20086;-88
2023/10/03 10:53:05;;;;;;;2.28;0.70;;;16.70;99.90;;;;;;5109107;27;20039;-87
2023/10/03 10:55:33;;;;;;;1.40;0.60;;;16.60;99.90;;;;;;5095598;27;20043;-89
2023/10/03 10:58:12;;;;;;;3.03;0.70;;;17.50;99.90;;;;;;5113623;27;20047;-86
2023/10/03 11:00:39;;;;;;;2.95;0.65;;;17.40;99.90;;;;;;5112085;27;20040;-88
2023/10/03 11:03:06;;;;;;;2.65;0.82;;;16.90;99.90;;;;;;5114254;27;20043;-87
2023/10/03 11:05:44;;;;;;;2.25;0.70;;;16.60;99.90;;;;;;5092626;28;20490;-89
2023/10/03 11:08:10;;;;;;;2.63;0.80;;;16.50;99.90;;;;;;5076021;27;20059;-88
2023/10/03 11:10:46;;;;;;;3.03;1.05;;;16.50;99.90;;;;;;5110379;27;20054;-87
2023/10/03 11:13:12;;;;;;;5.00;1.00;;;16.40;99.90;;;;;;5110492;27;20130;-87
2023/10/03 11:15:37;;;;;;;3.92;1.10;;;16.50;99.90;;;;;;5116089;27;20142;-86
2023/10/03 11:18:04;;;;;;;4.72;1.30;;;16.40;99.90;;;;;;5093660;28;20031;-88
2023/10/03 11:20:31;;;;;;;4.72;1.10;;;16.70;99.90;;;;;;5104737;27;20410;-87
2023/10/03 11:22:56;;;;;;;3.58;1.00;;;17.00;99.90;;;;;;5113707;27;20498;-89
2023/10/03 11:25:22;;;;;;;5.97;1.48;;;17.20;99.90;;;;;;5107182;28;20043;-88
2023/10/03 11:27:48;;;;;;;7.43;1.20;;;17.30;99.90;;;;;;5107165;27;20915;-90
2023/10/03 11:30:22;;;;;;;3.88;1.27;;;18.10;99.90;;;;;;5096034;27;20510;-90
2023/10/03 11:32:48;;;;;;;3.97;1.40;;;17.50;99.90;;;;;;5114104;27;20050;-91
2023/10/03 11:35:21;;;;;;;3.38;1.25;;;17.50;99.90;;;;;;5113903;27;20074;-92
2023/10/03 11:37:48;;;;;;;5.30;1.33;;;17.40;99.90;;;;;;5087507;28;20082;-90
2023/10/03 11:40:21;;;;;;;5.75;1.23;;;17.20;99.90;;;;;;5078911;28;20047;-88
2023/10/03 11:43:08;;;;;;;3.53;0.90;;;17.30;99.90;;;;;;5089716;27;20127;-91
2023/10/03 11:45:34;;;;;;;2.92;1.10;;;17.70;99.90;;;;;;5114894;27;20122;-89
2023/10/03 11:48:08;;;;;;;1.60;0.77;;;16.80;99.90;;;;;;5097692;27;20043;-88
2023/10/03 11:50:38;;;;;;;1.35;0.70;;;17.20;99.90;;;;;;5096497;27;20039;-90
2023/10/03 11:53:05;;;;;;;1.15;0.70;;;16.10;99.90;;;;;;5095536;28;20052;-90
2023/10/03 11:55:32;;;;;;;2.40;0.80;;;15.60;99.90;;;;;;5099866;27;20039;-88
2023/10/03 11:58:00;;;;;;;4.28;0.93;;;15.40;99.90;;;;;;5097466;27;20045;-88
2023/10/03 12:00:25;;;;;;;1.63;1.00;;;15.20;99.90;;;;;;5116432;27;20069;-88
2023/10/03 12:02:52;;;;;;;1.85;1.00;;;15.70;99.90;;;;;;5114184;27;20137;-87
2023/10/03 12:05:17;;;;;;;2.95;0.90;;;15.10;99.90;;;;;;5113451;27;20268;-86
2023/10/03 12:07:47;;;;;;;3.40;1.35;;;15.00;99.90;;;;;;5092895;27;20035;-87
2023/10/03 12:10:13;;;;;;;3.80;1.70;;;14.80;99.90;;;;;;5091869;28;20096;-88
2023/10/03 12:12:39;;;;;;;3.00;1.48;;;15.40;99.90;;;;;;5092015;28;20062;-86
2023/10/03 12:15:12;;;;;;;3.10;1.30;;;14.60;99.90;;;;;;5092899;28;20522;-89
2023/10/03 12:17:46;;;;;;;2.33;1.30;;;14.50;99.90;;;;;;5074529;28;20494;-86
2023/10/03 12:20:13;;;;;;;4.47;1.60;;;14.50;99.90;;;;;;5091203;28;20078;-86
2023/10/03 12:22:44;;;;;;;3.20;1.70;;;14.50;99.90;;;;;;5091595;28;20126;-84
2023/10/03 12:25:14;;;;;;;5.75;2.05;;;14.50;99.90;;;;;;5103780;28;20035;-84
2023/10/03 12:27:44;;;;;;;5.22;1.70;;;15.00;99.90;;;;;;5079872;28;20146;-85
2023/10/03 12:30:11;;;;;;;5.60;2.15;;;14.50;99.90;;;;;;5087929;28;20039;-84
2023/10/03 12:32:41;;;;;;;6.35;2.58;;;14.50;99.90;;;;;;5096464;28;20036;-85
2023/10/03 12:35:08;;;;;;;5.90;1.80;;;14.50;99.90;;;;;;5105301;27;20050;-85
2023/10/03 12:37:34;;;;;;;13.95;2.28;;;15.20;99.90;;;;;;5101506;27;20401;-85
2023/10/03 12:40:08;;;;;;;4.45;1.92;;;14.40;99.90;;;;;;5116581;27;20051;-85
2023/10/03 12:42:35;;;;;;;7.72;2.47;;;14.40;99.90;;;;;;5098837;27;20075;-86
2023/10/03 12:45:01;;;;;;;5.82;1.95;;;14.40;99.90;;;;;;5100943;27;20053;-84
2023/10/03 12:47:35;;;;;;;10.35;2.50;;;14.50;99.90;;;;;;5103180;28;20401;-85
2023/10/03 12:50:02;;;;;;;15.02;2.63;;;14.60;99.90;;;;;;5117233;27;20047;-86
2023/10/03 12:52:30;;;;;;;7.10;2.42;;;14.70;99.90;;;;;;5100818;27;20046;-86
2023/10/03 12:54:58;;;;;;;5.25;2.20;;;14.80;99.90;;;;;;5117808;27;20043;-85